Terminal Aerodrome Forecast
Issued by NWS Omaha/Valley, NE

Home | Current Version | Previous Version | Text Only | Print | Product List | Glossary On
Versions: 1 2 3 4 5 6 7 8 9 10 11 12 13 14 15 16 17 18 19 20 21 22 23 24 25 26 27 28 29 30 31 32 33 34 35
000
FTUS43 KOAX 120131 AAA
TAFLNK
TAF AMD
KLNK 120131Z 1202/1224 08008KT P6SM SCT100 SCT150
     FM120900 13006KT P6SM SCT100 BKN200
     FM121400 19010KT P6SM BKN150
     FM121800 22012KT P6SM SCT050 SCT100=

USA.gov is the U.S. government's official web portal to all federal, state and local government web resources and services.